createdAt,value
2022-09-02T00:02:37.801Z,80.81
2022-09-02T00:06:16.515Z,80.97
2022-09-02T00:09:54.255Z,80.95
2022-09-02T00:13:32.531Z,80.75
2022-09-02T00:17:09.864Z,80.70
2022-09-02T00:20:48.737Z,80.56
2022-09-02T00:24:26.179Z,80.41
2022-09-02T00:28:03.997Z,80.46
2022-09-02T00:31:45.653Z,80.25
2022-09-02T00:35:23.417Z,80.18
2022-09-02T00:39:01.797Z,80.48
2022-09-02T00:42:39.359Z,80.08
2022-09-02T00:46:19.789Z,80.35
2022-09-02T00:49:59.765Z,80.48
2022-09-02T00:53:39.505Z,80.35
2022-09-02T00:57:20.264Z,80.23
2022-09-02T01:00:59.137Z,80.08
2022-09-02T01:04:36.587Z,80.79
2022-09-02T01:08:18.446Z,80.43
2022-09-02T01:11:57.028Z,80.40
2022-09-02T01:15:52.325Z,80.32
2022-09-02T01:19:34.562Z,80.20
2022-09-02T01:23:13.919Z,80.23
2022-09-02T01:26:55.760Z,80.54
2022-09-02T01:30:34.709Z,80.95
2022-09-02T01:34:12.075Z,80.68
2022-09-02T01:37:54.803Z,80.79
2022-09-02T01:41:34.613Z,81.36
2022-09-02T01:45:12.422Z,81.01
2022-09-02T01:48:51.071Z,81.18
2022-09-02T01:52:29.783Z,81.01
2022-09-02T01:56:07.046Z,80.92
2022-09-02T01:59:45.321Z,81.06
2022-09-02T02:03:42.225Z,80.95
2022-09-02T02:06:59.007Z,80.94
2022-09-02T02:10:36.774Z,80.85
2022-09-02T02:14:16.081Z,80.86
2022-09-02T02:17:53.707Z,80.44
2022-09-02T02:21:32.282Z,80.81
2022-09-02T02:25:11.264Z,80.67
2022-09-02T02:28:48.470Z,80.58
2022-09-02T02:32:25.614Z,80.54
2022-09-02T02:36:04.384Z,80.65
2022-09-02T02:39:43.146Z,80.47
2022-09-02T02:43:21.939Z,80.47
2022-09-02T02:46:59.179Z,80.29
2022-09-02T02:50:37.204Z,80.23
2022-09-02T02:54:15.336Z,79.85
2022-09-02T02:57:52.628Z,79.50
2022-09-02T03:01:31.741Z,79.33
2022-09-02T03:05:10.796Z,79.20
2022-09-02T03:08:49.298Z,79.12
2022-09-02T03:12:28.805Z,79.12
2022-09-02T03:16:07.353Z,79.16
2022-09-02T03:19:44.742Z,79.34
2022-09-02T03:23:22.144Z,79.00
2022-09-02T03:26:59.455Z,78.92
2022-09-02T03:30:39.673Z,78.56
2022-09-02T03:34:17.238Z,78.40
2022-09-02T03:37:55.923Z,78.09
2022-09-02T03:41:35.018Z,77.98
2022-09-02T03:45:13.918Z,77.53
2022-09-02T03:48:52.051Z,77.41
2022-09-02T03:52:30.715Z,77.19
2022-09-02T03:56:13.123Z,77.09
2022-09-02T03:59:50.797Z,76.86
2022-09-02T04:03:28.151Z,76.94
2022-09-02T04:07:06.331Z,76.78
2022-09-02T04:10:44.501Z,76.54
2022-09-02T04:14:21.909Z,76.14
2022-09-02T04:17:59.315Z,75.88
2022-09-02T04:21:40.079Z,75.33
2022-09-02T04:25:17.812Z,74.74
2022-09-02T04:28:56.193Z,74.43
2022-09-02T04:32:38.408Z,74.23
2022-09-02T04:36:19.954Z,73.96
2022-09-02T04:39:58.900Z,73.78
2022-09-02T04:43:36.463Z,73.62
2022-09-02T04:47:14.534Z,73.61
2022-09-02T04:50:52.504Z,73.45
2022-09-02T04:54:31.252Z,73.48
2022-09-02T04:58:10.931Z,73.37
2022-09-02T05:01:48.679Z,73.21
2022-09-02T05:05:26.176Z,73.36
2022-09-02T05:09:04.701Z,73.27
2022-09-02T05:12:43.502Z,73.18
2022-09-02T05:16:24.363Z,73.22
2022-09-02T05:20:05.392Z,73.05
2022-09-02T05:23:42.924Z,73.20
2022-09-02T05:27:20.177Z,73.25
2022-09-02T05:31:06.187Z,73.45
2022-09-02T05:34:43.335Z,73.72
2022-09-02T05:38:21.417Z,73.89
2022-09-02T05:41:58.791Z,74.01
2022-09-02T05:45:39.072Z,74.18
2022-09-02T05:49:16.697Z,74.28
2022-09-02T05:52:56.306Z,74.54
2022-09-02T05:56:33.968Z,74.83
2022-09-02T06:00:16.948Z,74.89
2022-09-02T06:03:56.588Z,74.92
2022-09-02T06:07:36.671Z,75.19
2022-09-02T06:11:14.437Z,75.49
2022-09-02T06:14:52.100Z,75.65
2022-09-02T06:18:30.476Z,75.68
2022-09-02T06:22:09.368Z,75.85
2022-09-02T06:25:51.802Z,75.96
2022-09-02T06:29:29.813Z,75.94
2022-09-02T06:33:07.378Z,75.91
2022-09-02T06:36:47.545Z,76.06
2022-09-02T06:40:27.084Z,76.02
2022-09-02T06:44:07.097Z,75.93
2022-09-02T06:47:44.980Z,75.58
2022-09-02T06:51:35.530Z,75.01
2022-09-02T06:55:14.328Z,74.65
2022-09-02T06:58:51.750Z,73.92
2022-09-02T07:02:32.720Z,73.31
2022-09-02T07:06:10.206Z,72.16
2022-09-02T07:09:47.430Z,71.42
2022-09-02T07:13:25.464Z,70.56
2022-09-02T07:17:03.191Z,70.27
2022-09-02T07:20:40.328Z,69.22
2022-09-02T07:24:19.415Z,67.94
2022-09-02T07:27:57.480Z,66.61
2022-09-02T07:31:42.472Z,64.14
2022-09-02T07:35:19.975Z,62.65
2022-09-02T07:38:58.354Z,61.71
2022-09-02T07:42:35.498Z,58.87
2022-09-02T07:46:14.112Z,56.40
2022-09-02T07:53:49.470Z,48.70
2022-09-02T07:57:27.023Z,44.14
2022-09-02T08:01:24.065Z,43.28
2022-09-02T08:04:41.590Z,43.29
2022-09-02T08:08:20.293Z,42.91
2022-09-02T08:11:58.467Z,41.17
2022-09-02T08:15:38.231Z,40.87
2022-09-02T08:19:16.534Z,39.72
2022-09-02T08:23:05.097Z,39.10
2022-09-02T08:26:48.955Z,37.66
2022-09-02T08:30:27.128Z,37.83
2022-09-02T08:34:05.300Z,36.63
2022-09-02T08:37:43.212Z,36.64
2022-09-02T08:41:39.747Z,35.83
2022-09-02T08:45:29.334Z,34.80
2022-09-02T08:49:40.986Z,35.23
2022-09-02T08:53:34.834Z,35.41
2022-09-02T08:57:13.403Z,34.45
2022-09-02T09:01:14.849Z,34.60
2022-09-02T09:05:08.528Z,34.27
2022-09-02T09:09:18.826Z,33.07
2022-09-02T09:13:15.224Z,32.84
2022-09-02T09:17:22.460Z,31.98
2022-09-02T09:21:00.379Z,31.17
2022-09-02T09:24:41.445Z,28.27
2022-09-02T09:28:19.127Z,27.40
2022-09-02T09:31:59.245Z,29.15
2022-09-02T09:36:07.502Z,28.40
2022-09-02T09:39:44.859Z,29.81
2022-09-02T09:43:31.571Z,31.51
2022-09-02T09:47:18.025Z,32.28
2022-09-02T09:50:56.781Z,29.34
2022-09-02T09:54:34.952Z,28.96
2022-09-02T09:58:13.128Z,28.91
2022-09-02T10:01:51.733Z,29.70
2022-09-02T10:05:36.115Z,29.77
2022-09-02T10:09:19.380Z,27.57
2022-09-02T10:13:28.496Z,28.74
2022-09-02T10:17:12.509Z,28.45
2022-09-02T10:21:15.612Z,27.68
2022-09-02T10:25:18.128Z,29.22
2022-09-02T10:29:26.130Z,30.35
2022-09-02T10:33:19.893Z,30.97
2022-09-02T10:37:20.963Z,30.10
2022-09-02T10:41:14.274Z,29.43
2022-09-02T10:45:12.408Z,28.80
2022-09-02T10:49:21.687Z,28.46
2022-09-02T10:53:20.795Z,27.70
2022-09-02T10:57:05.159Z,26.67
2022-09-02T11:00:47.823Z,25.72
2022-09-02T11:04:51.519Z,26.08
2022-09-02T11:09:02.206Z,27.05
2022-09-02T11:12:45.566Z,28.79
2022-09-02T11:20:38.181Z,30.65
2022-09-02T11:24:34.257Z,32.07
2022-09-02T11:28:41.356Z,33.47
2022-09-02T11:32:51.431Z,33.49
2022-09-02T11:36:33.508Z,33.21
2022-09-02T11:40:33.917Z,32.40
2022-09-02T11:44:31.423Z,32.12
2022-09-02T11:48:40.831Z,32.45
2022-09-02T11:52:47.012Z,32.76
2022-09-02T11:56:29.499Z,34.12
2022-09-02T12:00:12.008Z,33.94
2022-09-02T12:04:56.077Z,32.50
2022-09-02T12:08:33.746Z,33.93
2022-09-02T12:12:37.766Z,32.90
2022-09-02T12:16:16.190Z,37.53
2022-09-02T12:19:54.711Z,42.87
2022-09-02T12:23:48.845Z,46.99
2022-09-02T12:27:35.715Z,46.17
2022-09-02T12:31:43.474Z,45.11
2022-09-02T12:35:51.157Z,38.62
2022-09-02T12:39:33.326Z,35.65
2022-09-02T12:43:35.341Z,35.43
2022-09-02T12:47:29.583Z,37.34
2022-09-02T12:51:07.048Z,38.90
2022-09-02T12:54:50.429Z,39.94
2022-09-02T12:58:47.620Z,38.14
2022-09-02T13:02:43.928Z,36.24
2022-09-02T13:06:11.980Z,35.24
2022-09-02T13:10:20.001Z,35.83
2022-09-02T13:14:17.893Z,38.55
2022-09-02T13:18:12.914Z,38.47
2022-09-02T13:22:27.562Z,39.28
2022-09-02T13:26:48.363Z,40.07
2022-09-02T13:30:59.525Z,44.96
2022-09-02T13:34:46.235Z,45.69
2022-09-02T13:38:29.237Z,46.25
2022-09-02T13:42:21.435Z,47.50
2022-09-02T13:45:46.691Z,48.76
2022-09-02T13:49:41.727Z,50.06
2022-09-02T13:53:54.113Z,49.80
2022-09-02T13:57:26.889Z,50.57
2022-09-02T14:01:22.351Z,51.42
2022-09-02T14:05:27.742Z,51.96
2022-09-02T14:09:11.607Z,48.60
2022-09-02T14:12:51.248Z,44.46
2022-09-02T14:16:37.057Z,43.20
2022-09-02T14:20:15.187Z,38.51
2022-09-02T14:23:53.942Z,36.89
2022-09-02T14:27:31.683Z,34.82
2022-09-02T14:31:24.934Z,34.56
2022-09-02T14:35:35.412Z,33.36
2022-09-02T14:39:17.159Z,32.18
2022-09-02T14:42:57.937Z,33.26
2022-09-02T14:46:44.322Z,32.68
2022-09-02T14:50:27.693Z,36.02
2022-09-02T14:54:07.511Z,38.64
2022-09-02T14:57:44.779Z,40.68
2022-09-02T15:01:23.495Z,43.46
2022-09-02T15:05:08.010Z,45.47
2022-09-02T15:08:46.205Z,45.17
2022-09-02T15:12:31.000Z,46.84
2022-09-02T15:16:08.414Z,47.22
2022-09-02T15:19:47.426Z,47.28
2022-09-02T15:23:25.826Z,46.32
2022-09-02T15:27:04.051Z,46.13
2022-09-02T15:30:42.139Z,44.50
2022-09-02T15:34:22.066Z,45.31
2022-09-02T15:38:00.291Z,46.41
2022-09-02T15:41:39.004Z,46.45
2022-09-02T15:45:16.603Z,48.35
2022-09-02T15:48:59.055Z,49.41
2022-09-02T15:52:39.820Z,50.14
2022-09-02T15:56:23.066Z,50.07
2022-09-02T16:00:00.755Z,50.06
2022-09-02T16:03:38.197Z,49.96
2022-09-02T16:07:15.432Z,50.50
2022-09-02T16:10:54.236Z,50.04
2022-09-02T16:14:32.870Z,49.77
2022-09-02T16:18:12.022Z,49.90
2022-09-02T16:21:51.111Z,49.49
2022-09-02T16:25:28.808Z,49.14
2022-09-02T16:29:11.917Z,48.70
2022-09-02T16:32:49.752Z,48.66
2022-09-02T16:36:29.070Z,48.85
2022-09-02T16:40:11.287Z,48.30
2022-09-02T16:43:49.841Z,47.21
2022-09-02T16:47:28.900Z,47.15
2022-09-02T16:51:06.867Z,46.70
2022-09-02T16:54:45.128Z,46.08
2022-09-02T16:58:22.458Z,46.46
2022-09-02T17:02:00.828Z,45.16
2022-09-02T17:05:42.604Z,44.18
2022-09-02T17:09:15.976Z,42.94
2022-09-02T17:12:55.638Z,41.57
2022-09-02T17:16:37.685Z,42.92
2022-09-02T17:20:15.409Z,43.24
2022-09-02T17:23:54.693Z,44.03
2022-09-02T17:27:32.637Z,44.41
2022-09-02T17:31:29.372Z,44.90
2022-09-02T17:35:11.686Z,45.18
2022-09-02T17:38:48.893Z,45.18
2022-09-02T17:42:26.555Z,44.27
2022-09-02T17:46:10.566Z,43.54
2022-09-02T17:49:49.812Z,43.70
2022-09-02T17:53:28.549Z,45.09
2022-09-02T17:57:25.243Z,46.39
2022-09-02T18:01:05.166Z,48.15
2022-09-02T18:05:07.583Z,49.35
2022-09-02T18:09:02.797Z,51.94
2022-09-02T18:12:41.484Z,53.69
2022-09-02T18:16:52.530Z,55.51
2022-09-02T18:20:41.144Z,58.13
2022-09-02T18:24:37.454Z,58.42
2022-09-02T18:28:46.740Z,58.84
2022-09-02T18:32:54.592Z,59.54
2022-09-02T18:36:31.844Z,60.08
2022-09-02T18:40:21.484Z,62.22
2022-09-02T18:44:24.015Z,62.23
2022-09-02T18:48:18.565Z,62.69
2022-09-02T18:52:00.206Z,63.03
2022-09-02T18:55:39.595Z,64.03
2022-09-02T18:59:25.979Z,65.53
2022-09-02T19:03:06.806Z,65.49
2022-09-02T19:06:45.185Z,65.68
2022-09-02T19:10:23.870Z,65.45
2022-09-02T19:14:26.094Z,66.27
2022-09-02T19:18:03.758Z,65.84
2022-09-02T19:21:49.926Z,66.56
2022-09-02T19:25:29.313Z,66.80
2022-09-02T19:29:11.530Z,67.62
2022-09-02T19:32:54.446Z,67.74
2022-09-02T19:36:33.399Z,66.17
2022-09-02T19:40:11.885Z,66.01
2022-09-02T19:43:49.392Z,65.83
2022-09-02T19:51:27.160Z,65.05
2022-09-02T19:55:06.124Z,65.39
2022-09-02T19:58:43.990Z,65.92
2022-09-02T20:02:21.089Z,65.69
2022-09-02T20:05:58.504Z,66.50
2022-09-02T20:09:36.872Z,68.35
2022-09-02T20:13:16.734Z,69.37
2022-09-02T20:16:59.502Z,69.08
2022-09-02T20:20:38.332Z,68.40
2022-09-02T20:24:24.587Z,68.71
2022-09-02T20:28:22.302Z,69.63
2022-09-02T20:32:04.807Z,70.94
2022-09-02T20:35:51.779Z,70.99
2022-09-02T20:39:41.952Z,72.63
2022-09-02T20:43:28.596Z,73.57
2022-09-02T20:47:21.813Z,72.35
2022-09-02T20:50:59.174Z,73.88
2022-09-02T20:54:40.922Z,74.37
2022-09-02T20:58:21.041Z,74.68
2022-09-02T21:02:00.934Z,75.25
2022-09-02T21:05:44.053Z,73.56
2022-09-02T21:09:27.232Z,73.47
2022-09-02T21:13:26.382Z,74.07
2022-09-02T21:17:10.185Z,74.60
2022-09-02T21:20:55.320Z,75.22
2022-09-02T21:24:40.519Z,76.82
2022-09-02T21:28:22.512Z,77.79
2022-09-02T21:32:22.240Z,77.88
2022-09-02T21:36:01.453Z,78.64
2022-09-02T21:39:45.297Z,78.94
2022-09-02T21:43:44.024Z,78.01
2022-09-02T21:47:30.608Z,78.48
2022-09-02T21:51:18.181Z,79.18
2022-09-02T21:55:19.853Z,78.39
2022-09-02T21:59:14.241Z,77.60
2022-09-02T22:03:17.984Z,77.28
2022-09-02T22:07:22.205Z,76.85
2022-09-02T22:11:09.283Z,76.57
2022-09-02T22:15:21.259Z,76.57
2022-09-02T22:19:02.072Z,77.59
2022-09-02T22:22:46.224Z,77.30
2022-09-02T22:26:32.119Z,76.54
2022-09-02T22:30:14.341Z,76.09
2022-09-02T22:33:53.948Z,74.46
2022-09-02T22:37:46.450Z,73.28
2022-09-02T22:41:26.470Z,70.94
2022-09-02T22:45:10.762Z,68.98
2022-09-02T22:49:08.701Z,67.11
2022-09-02T22:52:46.672Z,65.74
2022-09-02T22:56:42.246Z,64.67
2022-09-02T23:00:21.247Z,63.91
2022-09-02T23:04:04.555Z,62.70
2022-09-02T23:07:43.425Z,62.08
2022-09-02T23:11:32.058Z,61.20
2022-09-02T23:15:13.373Z,60.46
2022-09-02T23:19:19.079Z,59.85
2022-09-02T23:23:24.164Z,59.42
2022-09-02T23:27:14.924Z,58.70
2022-09-02T23:31:23.099Z,58.43
2022-09-02T23:35:01.255Z,58.02
2022-09-02T23:39:17.653Z,57.53
2022-09-02T23:42:57.180Z,57.43
2022-09-02T23:47:04.447Z,57.00
2022-09-02T23:51:06.926Z,56.89
2022-09-02T23:55:05.193Z,56.39
2022-09-02T23:58:59.080Z,55.79
